Time;durP1;ratioP1;P1;durP2;ratioP2;P2;SDS_P1;SDS_P2;PMS_P1;PMS_P2;Temp;Humidity;BMP_temperature;BMP_pressure;BME280_temperature;BME280_humidity;BME280_pressure;Samples;Min_cycle;Max_cycle;Signal;HPM_P1;HPM_P2
2022/10/08 00:00:21;;;;;;;19.15;10.68;;;;;;;;;;5113798;28;20050;-75
2022/10/08 00:03:08;;;;;;;16.65;9.25;;;;;;;;;;5113270;28;20047;-75
2022/10/08 00:05:35;;;;;;;20.10;10.32;;;;;;;;;;5113443;28;20048;-75
2022/10/08 00:08:02;;;;;;;17.00;9.68;;;;;;;;;;5113720;28;20405;-75
2022/10/08 00:10:31;;;;;;;16.17;9.40;;;;;;;;;;5113439;28;20043;-75
2022/10/08 00:13:00;;;;;;;17.13;8.70;;;;;;;;;;5113371;28;20081;-75
2022/10/08 00:15:27;;;;;;;16.20;9.25;;;;;;;;;;5113631;27;20488;-75
2022/10/08 00:17:54;;;;;;;18.55;9.68;;;;;;;;;;5113277;27;20063;-75
2022/10/08 00:20:22;;;;;;;18.20;9.05;;;;;;;;;;5113636;28;20043;-75
2022/10/08 00:22:49;;;;;;;17.75;9.65;;;;;;;;;;5113872;27;20047;-75
2022/10/08 00:25:16;;;;;;;17.17;9.43;;;;;;;;;;5113534;28;20055;-75
2022/10/08 00:27:43;;;;;;;17.40;9.80;;;;;;;;;;5113776;27;20043;-74
2022/10/08 00:30:13;;;;;;;18.83;10.45;;;;;;;;;;5113159;28;20047;-75
2022/10/08 00:32:40;;;;;;;17.77;9.43;;;;;;;;;;5113518;28;20054;-75
2022/10/08 00:35:08;;;;;;;18.38;9.00;;;;;;;;;;5113325;27;20489;-74
2022/10/08 00:37:35;;;;;;;18.55;10.00;;;;;;;;;;5114801;27;20044;-75
2022/10/08 00:40:02;;;;;;;18.08;9.88;;;;;;;;;;5113848;28;20047;-75
2022/10/08 00:42:29;;;;;;;15.20;9.43;;;;;;;;;;5113408;28;20039;-75
2022/10/08 00:44:58;;;;;;;17.88;9.85;;;;;;;;;;5113153;28;20048;-75
2022/10/08 00:47:39;;;;;;;17.73;10.27;;;;;;;;;;5113588;28;20055;-75
2022/10/08 00:50:09;;;;;;;16.67;9.75;;;;;;;;;;5113459;28;20044;-75
2022/10/08 00:52:37;;;;;;;19.80;10.27;;;;;;;;;;5113589;27;20067;-75
2022/10/08 00:55:06;;;;;;;19.30;10.88;;;;;;;;;;5112784;28;20491;-75
2022/10/08 00:57:34;;;;;;;19.23;9.73;;;;;;;;;;5115294;28;20044;-75
2022/10/08 01:00:03;;;;;;;19.02;10.00;;;;;;;;;;5117199;28;20119;-74
2022/10/08 01:02:31;;;;;;;23.23;10.80;;;;;;;;;;5117385;28;20044;-75
2022/10/08 01:05:00;;;;;;;21.10;11.18;;;;;;;;;;5117307;28;20396;-75
2022/10/08 01:07:29;;;;;;;19.77;10.60;;;;;;;;;;5117299;28;20047;-75
2022/10/08 01:10:00;;;;;;;16.58;9.68;;;;;;;;;;5117279;28;20048;-75
2022/10/08 01:12:33;;;;;;;18.70;9.93;;;;;;;;;;5117295;28;20069;-75
2022/10/08 01:15:04;;;;;;;17.13;10.25;;;;;;;;;;5117920;27;20044;-74
2022/10/08 01:17:38;;;;;;;17.48;9.52;;;;;;;;;;5118714;28;20055;-75
2022/10/08 01:20:15;;;;;;;17.45;9.98;;;;;;;;;;5119069;27;20039;-75
2022/10/08 01:23:01;;;;;;;18.45;10.55;;;;;;;;;;5119028;27;20047;-75
2022/10/08 01:25:33;;;;;;;17.27;10.07;;;;;;;;;;5116964;28;20048;-75
2022/10/08 01:28:05;;;;;;;21.23;10.98;;;;;;;;;;5117504;28;20050;-75
2022/10/08 01:30:33;;;;;;;16.45;10.23;;;;;;;;;;5116963;28;20039;-75
2022/10/08 01:33:04;;;;;;;17.48;10.48;;;;;;;;;;5116950;28;20068;-74
2022/10/08 01:35:33;;;;;;;18.63;10.85;;;;;;;;;;5116527;28;20043;-75
2022/10/08 01:38:02;;;;;;;17.88;10.80;;;;;;;;;;5116879;28;20040;-75
2022/10/08 01:40:32;;;;;;;19.38;11.98;;;;;;;;;;5116691;28;20064;-75
2022/10/08 01:43:00;;;;;;;18.25;10.88;;;;;;;;;;5116250;28;20047;-75
2022/10/08 01:45:31;;;;;;;16.55;10.20;;;;;;;;;;5116796;28;20184;-75
2022/10/08 01:48:00;;;;;;;19.73;10.38;;;;;;;;;;5117008;28;20074;-74
2022/10/08 01:50:30;;;;;;;18.42;10.45;;;;;;;;;;5116586;28;20408;-75
2022/10/08 01:52:59;;;;;;;17.95;10.95;;;;;;;;;;5116460;28;20054;-75
2022/10/08 01:55:28;;;;;;;16.80;10.45;;;;;;;;;;5116026;28;20043;-75
2022/10/08 01:57:57;;;;;;;18.25;10.55;;;;;;;;;;5115906;28;20048;-75
2022/10/08 02:00:24;;;;;;;20.15;11.32;;;;;;;;;;5116001;28;20043;-75
2022/10/08 02:02:54;;;;;;;19.08;11.18;;;;;;;;;;5116472;28;20074;-75
2022/10/08 02:05:22;;;;;;;20.45;10.50;;;;;;;;;;5118060;28;20388;-75
2022/10/08 02:07:50;;;;;;;19.88;11.25;;;;;;;;;;5115921;28;20052;-74
2022/10/08 02:10:18;;;;;;;17.48;10.98;;;;;;;;;;5116090;28;20043;-75
2022/10/08 02:12:46;;;;;;;16.38;10.27;;;;;;;;;;5115890;28;20112;-75
2022/10/08 02:15:14;;;;;;;17.95;11.00;;;;;;;;;;5116091;28;20523;-75
2022/10/08 02:17:46;;;;;;;16.67;10.93;;;;;;;;;;5115978;28;20054;-75
2022/10/08 02:20:18;;;;;;;21.00;11.93;;;;;;;;;;5130609;27;20100;-75
2022/10/08 02:22:50;;;;;;;18.83;11.48;;;;;;;;;;5137960;27;20479;-75
2022/10/08 02:25:21;;;;;;;19.83;11.55;;;;;;;;;;5135709;27;20043;-75
2022/10/08 02:27:52;;;;;;;18.17;10.85;;;;;;;;;;5136583;27;20103;-75
2022/10/08 02:30:19;;;;;;;21.48;10.98;;;;;;;;;;5137574;27;20407;-75
2022/10/08 02:32:49;;;;;;;18.17;11.48;;;;;;;;;;5136391;27;20369;-75
2022/10/08 02:35:21;;;;;;;18.92;11.10;;;;;;;;;;5136052;27;20043;-75
2022/10/08 02:37:53;;;;;;;17.38;11.10;;;;;;;;;;5136912;27;20043;-75
2022/10/08 02:40:21;;;;;;;19.70;11.27;;;;;;;;;;5136946;27;20043;-75
2022/10/08 02:42:51;;;;;;;16.65;10.80;;;;;;;;;;5125454;27;20386;-75
2022/10/08 02:45:20;;;;;;;18.73;11.18;;;;;;;;;;5115688;28;20046;-75
2022/10/08 02:47:50;;;;;;;20.38;11.63;;;;;;;;;;5115328;28;20074;-75
2022/10/08 02:50:20;;;;;;;18.42;11.45;;;;;;;;;;5114778;28;20110;-75
2022/10/08 02:52:49;;;;;;;20.55;12.27;;;;;;;;;;5115718;28;20039;-74
2022/10/08 02:55:23;;;;;;;20.42;12.10;;;;;;;;;;5114684;28;20061;-75
2022/10/08 02:57:55;;;;;;;23.77;12.60;;;;;;;;;;5115834;28;20484;-75
2022/10/08 03:00:22;;;;;;;19.67;11.73;;;;;;;;;;5115950;28;20507;-75
2022/10/08 03:02:52;;;;;;;17.95;11.70;;;;;;;;;;5114991;28;20052;-75
2022/10/08 03:05:21;;;;;;;18.92;12.25;;;;;;;;;;5114499;28;20051;-75
2022/10/08 03:07:50;;;;;;;20.15;11.35;;;;;;;;;;5114929;28;20052;-76
2022/10/08 03:10:18;;;;;;;20.35;11.77;;;;;;;;;;5114722;28;20043;-75
2022/10/08 03:12:45;;;;;;;20.60;12.10;;;;;;;;;;5114837;28;20048;-75
2022/10/08 03:15:14;;;;;;;21.85;12.30;;;;;;;;;;5114724;28;20043;-75
2022/10/08 03:17:43;;;;;;;22.90;12.68;;;;;;;;;;5114817;28;20067;-75
2022/10/08 03:20:11;;;;;;;19.67;11.48;;;;;;;;;;5113744;28;20395;-75
2022/10/08 03:22:40;;;;;;;20.15;11.90;;;;;;;;;;5114546;28;20096;-75
2022/10/08 03:25:07;;;;;;;19.98;11.55;;;;;;;;;;5113882;28;20051;-75
2022/10/08 03:27:35;;;;;;;25.85;12.30;;;;;;;;;;5113301;28;20431;-75
2022/10/08 03:30:02;;;;;;;20.13;11.82;;;;;;;;;;5114377;28;20552;-74
2022/10/08 03:32:29;;;;;;;22.65;12.95;;;;;;;;;;5109154;28;20486;-75
2022/10/08 03:34:56;;;;;;;21.33;12.15;;;;;;;;;;5102972;28;20051;-74
2022/10/08 03:37:24;;;;;;;21.90;12.10;;;;;;;;;;5093390;28;20470;-75
2022/10/08 03:39:52;;;;;;;21.48;12.43;;;;;;;;;;5092814;28;20055;-75
2022/10/08 03:42:19;;;;;;;19.45;11.95;;;;;;;;;;5099028;28;20039;-75
2022/10/08 03:44:47;;;;;;;27.88;13.30;;;;;;;;;;5114028;28;20047;-74
2022/10/08 03:47:14;;;;;;;22.05;13.15;;;;;;;;;;5113732;28;20044;-75
2022/10/08 03:49:41;;;;;;;19.60;12.43;;;;;;;;;;5113857;28;20044;-75
2022/10/08 03:52:08;;;;;;;21.30;12.18;;;;;;;;;;5113466;28;20055;-74
2022/10/08 03:54:36;;;;;;;21.80;12.65;;;;;;;;;;5113441;28;20484;-74
2022/10/08 03:57:04;;;;;;;21.13;12.10;;;;;;;;;;5092955;28;20489;-74
2022/10/08 03:59:31;;;;;;;21.48;12.57;;;;;;;;;;5093624;28;20069;-75
2022/10/08 04:01:58;;;;;;;19.55;11.90;;;;;;;;;;5093566;28;20044;-75
2022/10/08 04:04:26;;;;;;;20.92;12.07;;;;;;;;;;5094416;28;20048;-75
2022/10/08 04:06:53;;;;;;;19.17;12.15;;;;;;;;;;5113946;28;20043;-75
2022/10/08 04:09:20;;;;;;;20.15;11.68;;;;;;;;;;5113290;28;20403;-74
2022/10/08 04:11:47;;;;;;;22.40;13.02;;;;;;;;;;5113536;28;20039;-75
2022/10/08 04:14:16;;;;;;;23.67;12.43;;;;;;;;;;5113667;28;20054;-74
2022/10/08 04:16:43;;;;;;;20.67;12.18;;;;;;;;;;5113675;28;20488;-75
2022/10/08 04:19:10;;;;;;;18.30;11.63;;;;;;;;;;5113460;28;20047;-75
2022/10/08 04:21:38;;;;;;;19.40;11.98;;;;;;;;;;5113554;28;20047;-74
2022/10/08 04:24:05;;;;;;;20.08;11.80;;;;;;;;;;5113226;28;20044;-75
2022/10/08 04:26:33;;;;;;;19.23;12.05;;;;;;;;;;5113712;28;20054;-75
2022/10/08 04:29:00;;;;;;;21.58;12.70;;;;;;;;;;5113722;28;20047;-74
2022/10/08 04:31:28;;;;;;;19.92;11.75;;;;;;;;;;5113390;28;20487;-75
2022/10/08 04:33:56;;;;;;;23.30;12.80;;;;;;;;;;5113565;28;20559;-75
2022/10/08 04:36:24;;;;;;;26.33;12.13;;;;;;;;;;5113092;28;20504;-75
2022/10/08 04:38:51;;;;;;;26.40;12.95;;;;;;;;;;5113010;28;20117;-75
2022/10/08 04:41:19;;;;;;;19.38;12.40;;;;;;;;;;5113617;28;20058;-75
2022/10/08 04:43:46;;;;;;;21.88;12.68;;;;;;;;;;5113518;28;20044;-75
2022/10/08 04:46:15;;;;;;;20.38;12.40;;;;;;;;;;5113474;28;20043;-75
2022/10/08 04:48:47;;;;;;;21.02;12.43;;;;;;;;;;5113546;28;20039;-74
2022/10/08 04:51:15;;;;;;;20.92;12.20;;;;;;;;;;5113341;28;20047;-75
2022/10/08 04:53:42;;;;;;;21.85;12.70;;;;;;;;;;5113557;28;20086;-75
2022/10/08 04:56:10;;;;;;;20.98;12.85;;;;;;;;;;5113137;28;20052;-75
2022/10/08 04:58:38;;;;;;;19.92;12.52;;;;;;;;;;5113198;28;20040;-75
2022/10/08 05:01:05;;;;;;;21.98;12.50;;;;;;;;;;5113361;28;20051;-74
2022/10/08 05:03:35;;;;;;;21.60;12.70;;;;;;;;;;5113410;28;20051;-74
2022/10/08 05:06:04;;;;;;;21.90;12.77;;;;;;;;;;5112809;28;20044;-74
2022/10/08 05:08:31;;;;;;;19.77;12.48;;;;;;;;;;5113122;28;20084;-75
2022/10/08 05:10:58;;;;;;;20.83;12.27;;;;;;;;;;5113202;28;20063;-75
2022/10/08 05:13:26;;;;;;;21.73;12.30;;;;;;;;;;5113282;28;20051;-74
2022/10/08 05:15:53;;;;;;;18.73;11.90;;;;;;;;;;5113174;28;20044;-75
2022/10/08 05:18:20;;;;;;;21.95;12.70;;;;;;;;;;5113301;28;20052;-75
2022/10/08 05:20:47;;;;;;;19.63;12.68;;;;;;;;;;5103497;28;20077;-74
2022/10/08 05:23:15;;;;;;;20.60;12.57;;;;;;;;;;5109735;28;20048;-75
2022/10/08 05:25:42;;;;;;;22.27;12.35;;;;;;;;;;5104697;28;20435;-75
2022/10/08 05:28:10;;;;;;;20.27;12.30;;;;;;;;;;5102769;28;20044;-74
2022/10/08 05:30:37;;;;;;;18.55;12.20;;;;;;;;;;5101028;28;20048;-74
2022/10/08 05:33:04;;;;;;;19.27;12.32;;;;;;;;;;5101164;28;20043;-75
2022/10/08 05:35:32;;;;;;;18.90;12.10;;;;;;;;;;5112009;28;20117;-75
2022/10/08 05:37:59;;;;;;;20.80;12.85;;;;;;;;;;5100959;28;20044;-74
2022/10/08 05:40:28;;;;;;;20.20;12.60;;;;;;;;;;5099272;28;20051;-75
2022/10/08 05:42:55;;;;;;;21.40;12.60;;;;;;;;;;5093679;28;20485;-75
2022/10/08 05:45:23;;;;;;;20.17;12.35;;;;;;;;;;5105739;28;20047;-74
2022/10/08 05:47:50;;;;;;;20.50;12.23;;;;;;;;;;5109184;28;20736;-75
2022/10/08 05:50:17;;;;;;;20.73;12.63;;;;;;;;;;5109703;28;20047;-75
2022/10/08 05:52:44;;;;;;;20.70;12.50;;;;;;;;;;5097902;28;20043;-75
2022/10/08 05:55:11;;;;;;;20.38;12.38;;;;;;;;;;5099854;28;20047;-75
2022/10/08 05:57:40;;;;;;;19.45;12.00;;;;;;;;;;5116084;28;20066;-76
2022/10/08 06:00:08;;;;;;;19.42;12.35;;;;;;;;;;5116243;28;20047;-76
2022/10/08 06:02:35;;;;;;;22.48;12.90;;;;;;;;;;5114131;28;20047;-76
2022/10/08 06:05:02;;;;;;;22.55;12.45;;;;;;;;;;5106663;28;20452;-75
2022/10/08 06:07:29;;;;;;;21.23;12.77;;;;;;;;;;5115942;28;20129;-75
2022/10/08 06:09:56;;;;;;;21.98;12.23;;;;;;;;;;5109425;27;20043;-75
2022/10/08 06:12:23;;;;;;;24.00;12.07;;;;;;;;;;5111947;28;20100;-75
2022/10/08 06:14:52;;;;;;;21.35;12.85;;;;;;;;;;5113716;28;20047;-76
2022/10/08 06:17:20;;;;;;;19.50;12.25;;;;;;;;;;5111156;28;20047;-75
2022/10/08 06:19:47;;;;;;;19.88;12.10;;;;;;;;;;5113996;27;20044;-74
2022/10/08 06:22:14;;;;;;;18.85;11.57;;;;;;;;;;5114355;28;20444;-75
2022/10/08 06:24:41;;;;;;;18.95;11.60;;;;;;;;;;5109755;28;20043;-75
2022/10/08 06:27:08;;;;;;;19.15;11.93;;;;;;;;;;5108491;27;20089;-75
2022/10/08 06:29:35;;;;;;;22.45;12.20;;;;;;;;;;5107143;28;20067;-75
2022/10/08 06:32:04;;;;;;;20.50;12.50;;;;;;;;;;5112510;27;20111;-75
2022/10/08 06:34:31;;;;;;;20.25;12.55;;;;;;;;;;5113201;27;20044;-75
2022/10/08 06:36:59;;;;;;;19.95;11.68;;;;;;;;;;5113963;28;20055;-75
2022/10/08 06:39:26;;;;;;;20.10;11.95;;;;;;;;;;5115675;28;20392;-75
2022/10/08 06:41:53;;;;;;;19.08;11.35;;;;;;;;;;5111406;27;20052;-75
2022/10/08 06:44:20;;;;;;;19.50;11.55;;;;;;;;;;5107648;28;20039;-75
2022/10/08 06:46:47;;;;;;;22.80;12.07;;;;;;;;;;5113074;28;20044;-75
2022/10/08 06:49:17;;;;;;;20.02;11.73;;;;;;;;;;5111049;28;20048;-75
2022/10/08 06:51:44;;;;;;;19.92;11.65;;;;;;;;;;5110005;28;20043;-75
2022/10/08 06:54:11;;;;;;;34.80;19.40;;;;;;;;;;5114169;27;20057;-75
2022/10/08 06:56:38;;;;;;;41.90;22.10;;;;;;;;;;5113474;27;20514;-75
2022/10/08 06:59:06;;;;;;;22.10;12.68;;;;;;;;;;5113987;28;20450;-74
2022/10/08 07:01:33;;;;;;;25.83;14.35;;;;;;;;;;5113507;28;20047;-77
2022/10/08 07:04:01;;;;;;;24.33;13.07;;;;;;;;;;5113292;28;20043;-76
2022/10/08 07:06:30;;;;;;;22.48;13.00;;;;;;;;;;5113780;28;20057;-75
2022/10/08 07:08:58;;;;;;;28.63;14.27;;;;;;;;;;5113644;27;20044;-74
2022/10/08 07:11:26;;;;;;;25.77;13.85;;;;;;;;;;5110573;28;20039;-74
2022/10/08 07:13:54;;;;;;;28.85;14.75;;;;;;;;;;5112254;28;20409;-75
2022/10/08 07:16:22;;;;;;;23.80;13.52;;;;;;;;;;5109257;28;20077;-74
2022/10/08 07:18:50;;;;;;;19.90;12.07;;;;;;;;;;5110681;28;20474;-75
2022/10/08 07:21:18;;;;;;;33.83;16.83;;;;;;;;;;5110142;28;20058;-74
2022/10/08 07:23:47;;;;;;;46.65;22.50;;;;;;;;;;5101823;28;20043;-74
2022/10/08 07:26:15;;;;;;;35.40;14.88;;;;;;;;;;5110371;28;20046;-75
2022/10/08 07:28:44;;;;;;;26.20;14.40;;;;;;;;;;5110229;28;20047;-74
2022/10/08 07:31:13;;;;;;;20.58;12.45;;;;;;;;;;5110868;27;20047;-74
2022/10/08 07:33:40;;;;;;;21.20;12.43;;;;;;;;;;5102170;27;20121;-75
2022/10/08 07:36:09;;;;;;;21.20;13.73;;;;;;;;;;5093132;28;20194;-75
2022/10/08 07:38:36;;;;;;;21.92;12.57;;;;;;;;;;5090220;28;20044;-75
2022/10/08 07:41:05;;;;;;;20.63;12.98;;;;;;;;;;5099423;27;20062;-74
2022/10/08 07:43:32;;;;;;;19.00;11.43;;;;;;;;;;5096659;28;20066;-77
2022/10/08 07:45:59;;;;;;;25.63;12.48;;;;;;;;;;5107880;28;20047;-75
2022/10/08 07:48:27;;;;;;;21.38;12.02;;;;;;;;;;5113430;28;20161;-75
2022/10/08 07:50:55;;;;;;;21.92;12.20;;;;;;;;;;5112548;28;20092;-75
2022/10/08 07:53:22;;;;;;;19.77;13.05;;;;;;;;;;5114227;28;20043;-75
2022/10/08 07:55:49;;;;;;;23.52;15.55;;;;;;;;;;5114036;27;20047;-74
2022/10/08 07:58:18;;;;;;;22.10;13.32;;;;;;;;;;5114195;28;20509;-74
2022/10/08 08:00:45;;;;;;;19.48;11.98;;;;;;;;;;5113803;28;20070;-74
2022/10/08 08:03:13;;;;;;;21.67;11.18;;;;;;;;;;5113677;28;20052;-74
2022/10/08 08:05:40;;;;;;;26.58;16.20;;;;;;;;;;5113612;28;20048;-75
2022/10/08 08:08:07;;;;;;;22.35;13.38;;;;;;;;;;5113546;28;20122;-75
2022/10/08 08:10:34;;;;;;;25.55;15.63;;;;;;;;;;5109932;28;20046;-75
2022/10/08 08:13:02;;;;;;;20.83;12.00;;;;;;;;;;5110087;28;20051;-75
2022/10/08 08:15:30;;;;;;;18.23;11.15;;;;;;;;;;5101935;28;20051;-75
2022/10/08 08:17:57;;;;;;;24.17;13.77;;;;;;;;;;5092677;28;20051;-75
2022/10/08 08:20:24;;;;;;;18.92;12.00;;;;;;;;;;5092540;28;20057;-74
2022/10/08 08:22:51;;;;;;;23.30;13.63;;;;;;;;;;5096969;28;20051;-74
2022/10/08 08:25:18;;;;;;;32.72;20.60;;;;;;;;;;5101672;28;20050;-74
2022/10/08 08:27:46;;;;;;;27.30;15.05;;;;;;;;;;5092993;28;20048;-73
2022/10/08 08:30:14;;;;;;;17.38;10.82;;;;;;;;;;5093601;28;20051;-73
2022/10/08 08:32:42;;;;;;;36.85;18.73;;;;;;;;;;5093798;28;20131;-74
2022/10/08 08:35:09;;;;;;;26.27;16.60;;;;;;;;;;5104904;28;20064;-74
2022/10/08 08:37:36;;;;;;;32.70;20.52;;;;;;;;;;5098249;28;20067;-74
2022/10/08 08:40:04;;;;;;;35.00;20.35;;;;;;;;;;5095095;28;20048;-74
2022/10/08 08:42:42;;;;;;;30.08;19.65;;;;;;;;;;5102061;28;20512;-74
2022/10/08 08:45:14;;;;;;;21.15;13.85;;;;;;;;;;5101517;28;20050;-73
2022/10/08 08:47:48;;;;;;;24.00;14.27;;;;;;;;;;5105612;28;20558;-74
2022/10/08 08:50:20;;;;;;;20.80;13.13;;;;;;;;;;5095738;28;20510;-74
2022/10/08 08:52:47;;;;;;;22.50;13.07;;;;;;;;;;5107226;27;20047;-74
2022/10/08 08:55:15;;;;;;;20.67;12.73;;;;;;;;;;5102525;28;20064;-74
2022/10/08 08:57:46;;;;;;;20.70;12.20;;;;;;;;;;5109170;28;20044;-73
2022/10/08 09:00:15;;;;;;;19.50;12.05;;;;;;;;;;5104019;28;20044;-74
2022/10/08 09:02:49;;;;;;;18.25;11.98;;;;;;;;;;5095219;28;20462;-74
2022/10/08 09:05:18;;;;;;;21.92;14.25;;;;;;;;;;5107284;28;20562;-74
2022/10/08 09:07:48;;;;;;;23.92;15.75;;;;;;;;;;5109260;28;20048;-74
2022/10/08 09:10:18;;;;;;;22.65;13.55;;;;;;;;;;5109715;28;20066;-74
2022/10/08 09:12:46;;;;;;;19.80;12.75;;;;;;;;;;5102510;28;20048;-74
2022/10/08 09:15:16;;;;;;;18.38;11.82;;;;;;;;;;5104177;28;20056;-74
2022/10/08 09:17:44;;;;;;;19.90;12.45;;;;;;;;;;5104081;28;20052;-75
2022/10/08 09:20:15;;;;;;;21.52;13.10;;;;;;;;;;5113567;28;20408;-74
2022/10/08 09:22:44;;;;;;;22.08;11.98;;;;;;;;;;5115352;28;20044;-75
2022/10/08 09:25:13;;;;;;;17.98;11.43;;;;;;;;;;5115904;28;20043;-75
2022/10/08 09:27:44;;;;;;;17.67;10.85;;;;;;;;;;5115685;28;20043;-75
2022/10/08 09:30:27;;;;;;;18.75;11.30;;;;;;;;;;5116723;28;20069;-75
2022/10/08 09:32:55;;;;;;;17.25;10.85;;;;;;;;;;5117148;28;20050;-75
2022/10/08 09:35:24;;;;;;;20.42;11.95;;;;;;;;;;5116418;28;20055;-75
2022/10/08 09:37:51;;;;;;;17.15;11.00;;;;;;;;;;5116607;28;20044;-75
2022/10/08 09:40:20;;;;;;;19.40;11.35;;;;;;;;;;5116623;28;20405;-74
2022/10/08 09:43:04;;;;;;;18.33;10.55;;;;;;;;;;5116433;28;20040;-75
2022/10/08 09:45:33;;;;;;;19.77;10.98;;;;;;;;;;5118328;28;20388;-74
2022/10/08 09:48:12;;;;;;;17.77;10.05;;;;;;;;;;5116824;28;20500;-75
2022/10/08 09:50:46;;;;;;;17.67;9.93;;;;;;;;;;5116288;28;20055;-76
2022/10/08 09:53:14;;;;;;;16.90;10.90;;;;;;;;;;5116695;28;20055;-74
2022/10/08 09:55:48;;;;;;;17.85;10.32;;;;;;;;;;5116210;28;20400;-75
2022/10/08 09:58:16;;;;;;;18.98;11.48;;;;;;;;;;5118085;28;20035;-74
2022/10/08 10:00:43;;;;;;;17.35;10.07;;;;;;;;;;5095912;28;20051;-75
2022/10/08 10:03:16;;;;;;;17.65;10.13;;;;;;;;;;5104516;28;20048;-75
2022/10/08 10:05:50;;;;;;;19.48;10.30;;;;;;;;;;5116377;28;20078;-75
2022/10/08 10:08:32;;;;;;;20.52;10.65;;;;;;;;;;5116288;28;20058;-73
2022/10/08 10:10:59;;;;;;;17.15;10.23;;;;;;;;;;5115697;28;20050;-75
2022/10/08 10:13:29;;;;;;;18.33;10.50;;;;;;;;;;5116407;28;20043;-75
2022/10/08 10:15:59;;;;;;;17.63;10.45;;;;;;;;;;5116143;28;20404;-75
2022/10/08 10:18:29;;;;;;;16.85;10.48;;;;;;;;;;5116170;28;20059;-75
2022/10/08 10:20:59;;;;;;;16.60;9.70;;;;;;;;;;5117447;28;20081;-75
2022/10/08 10:23:30;;;;;;;17.65;9.70;;;;;;;;;;5116178;27;20043;-75
2022/10/08 10:26:00;;;;;;;16.90;9.32;;;;;;;;;;5115680;28;20044;-75
2022/10/08 10:28:33;;;;;;;16.95;9.93;;;;;;;;;;5115612;28;20047;-75
2022/10/08 10:31:03;;;;;;;22.92;11.48;;;;;;;;;;5115895;28;20058;-75
2022/10/08 10:33:32;;;;;;;17.40;10.20;;;;;;;;;;5115778;28;20501;-76
2022/10/08 10:36:03;;;;;;;19.83;11.00;;;;;;;;;;5115726;28;20068;-75
2022/10/08 10:38:33;;;;;;;18.27;9.35;;;;;;;;;;5116191;28;20404;-75
2022/10/08 10:41:11;;;;;;;14.75;9.07;;;;;;;;;;5115385;28;20047;-75
2022/10/08 10:43:44;;;;;;;15.85;9.23;;;;;;;;;;5115585;28;20054;-74
2022/10/08 10:46:19;;;;;;;22.52;12.38;;;;;;;;;;5117099;28;20397;-75
2022/10/08 10:48:46;;;;;;;24.60;12.40;;;;;;;;;;5115499;28;20557;-74
2022/10/08 10:51:36;;;;;;;15.55;10.23;;;;;;;;;;5115610;28;20493;-76
2022/10/08 10:54:09;;;;;;;15.15;9.13;;;;;;;;;;5115375;28;20489;-75
2022/10/08 10:56:37;;;;;;;16.08;8.93;;;;;;;;;;5115604;28;20156;-75
2022/10/08 10:59:22;;;;;;;16.65;10.27;;;;;;;;;;5115745;28;20051;-74
2022/10/08 11:01:53;;;;;;;19.33;10.27;;;;;;;;;;5085273;28;20052;-75
2022/10/08 11:04:25;;;;;;;15.93;9.57;;;;;;;;;;5094784;28;20094;-75
2022/10/08 11:07:01;;;;;;;18.48;9.77;;;;;;;;;;5115350;28;20389;-75
2022/10/08 11:09:36;;;;;;;17.67;10.32;;;;;;;;;;5116582;28;20044;-75
2022/10/08 11:12:09;;;;;;;24.02;11.60;;;;;;;;;;5115063;28;20051;-75
2022/10/08 11:14:41;;;;;;;20.00;11.75;;;;;;;;;;5114931;28;20043;-76
2022/10/08 11:17:13;;;;;;;17.10;8.75;;;;;;;;;;5115546;28;20096;-75
2022/10/08 11:19:44;;;;;;;16.58;9.00;;;;;;;;;;5115184;28;20039;-76
2022/10/08 11:22:18;;;;;;;14.68;8.98;;;;;;;;;;5114762;28;20484;-75
2022/10/08 11:24:55;;;;;;;15.13;8.70;;;;;;;;;;5114478;28;20043;-75
2022/10/08 11:27:25;;;;;;;16.55;9.13;;;;;;;;;;5114847;27;20055;-74
2022/10/08 11:29:58;;;;;;;16.75;8.45;;;;;;;;;;5114782;28;20044;-75
2022/10/08 11:32:25;;;;;;;14.90;8.18;;;;;;;;;;5115483;27;20384;-75
2022/10/08 11:34:55;;;;;;;13.82;8.35;;;;;;;;;;5114745;27;20039;-75
2022/10/08 11:37:28;;;;;;;18.88;9.63;;;;;;;;;;5114364;27;20050;-76
2022/10/08 11:39:59;;;;;;;14.52;8.85;;;;;;;;;;5114500;28;20078;-75
2022/10/08 11:42:30;;;;;;;16.35;9.32;;;;;;;;;;5114707;28;20039;-74
2022/10/08 11:45:12;;;;;;;14.52;8.05;;;;;;;;;;5115584;28;20492;-76
2022/10/08 11:47:48;;;;;;;14.60;8.30;;;;;;;;;;5115696;28;20044;-75
2022/10/08 11:50:23;;;;;;;20.42;10.52;;;;;;;;;;5114471;28;20047;-76
2022/10/08 11:52:52;;;;;;;17.08;10.20;;;;;;;;;;5113958;28;20063;-76
2022/10/08 11:55:22;;;;;;;16.58;9.13;;;;;;;;;;5114260;28;20070;-75
2022/10/08 11:57:54;;;;;;;15.80;7.97;;;;;;;;;;5114184;28;20052;-76
2022/10/08 12:00:28;;;;;;;13.45;8.23;;;;;;;;;;5114082;28;20047;-76
2022/10/08 12:02:56;;;;;;;12.30;7.35;;;;;;;;;;5115470;28;20044;-74
2022/10/08 12:05:32;;;;;;;14.45;8.52;;;;;;;;;;5113859;28;20066;-76
2022/10/08 12:08:04;;;;;;;21.08;8.15;;;;;;;;;;5113763;28;20052;-76
2022/10/08 12:10:32;;;;;;;20.02;8.00;;;;;;;;;;5114053;28;20481;-76
2022/10/08 12:13:05;;;;;;;13.70;8.30;;;;;;;;;;5114066;27;20054;-74
2022/10/08 12:15:52;;;;;;;17.13;8.55;;;;;;;;;;5114054;27;20047;-76
2022/10/08 12:18:41;;;;;;;16.85;8.63;;;;;;;;;;5113810;28;20040;-76
2022/10/08 12:21:41;;;;;;;13.60;8.25;;;;;;;;;;5114033;27;20040;-75
2022/10/08 12:24:23;;;;;;;15.65;8.38;;;;;;;;;;5051931;28;20052;-74
2022/10/08 12:27:11;;;;;;;17.20;8.82;;;;;;;;;;5050879;28;20510;-75
2022/10/08 12:29:53;;;;;;;16.77;8.15;;;;;;;;;;5050628;28;20064;-75
2022/10/08 12:32:22;;;;;;;16.88;9.23;;;;;;;;;;5051079;28;20543;-75
2022/10/08 12:34:49;;;;;;;16.23;8.60;;;;;;;;;;5051262;28;20052;-76
2022/10/08 12:37:23;;;;;;;18.77;9.32;;;;;;;;;;5042737;28;20053;-75
2022/10/08 12:39:52;;;;;;;13.98;8.20;;;;;;;;;;5030947;28;20103;-76
2022/10/08 12:42:21;;;;;;;12.88;7.80;;;;;;;;;;5030925;28;20045;-76
2022/10/08 12:44:53;;;;;;;16.42;9.30;;;;;;;;;;5030960;28;20045;-76
2022/10/08 12:47:26;;;;;;;14.35;8.40;;;;;;;;;;5031187;28;20046;-76
2022/10/08 12:49:56;;;;;;;14.27;8.15;;;;;;;;;;5030638;28;20046;-76
2022/10/08 12:52:24;;;;;;;16.63;8.50;;;;;;;;;;5033263;28;20045;-74
2022/10/08 12:54:52;;;;;;;14.32;8.13;;;;;;;;;;5060837;28;20056;-76
2022/10/08 12:57:21;;;;;;;15.75;8.20;;;;;;;;;;5097248;28;20404;-74
2022/10/08 12:59:49;;;;;;;16.83;8.10;;;;;;;;;;5101809;28;20036;-74
2022/10/08 13:02:27;;;;;;;23.23;9.68;;;;;;;;;;5117749;27;20493;-75
2022/10/08 13:04:54;;;;;;;18.02;8.77;;;;;;;;;;5116995;28;20043;-75
2022/10/08 13:07:25;;;;;;;14.05;9.52;;;;;;;;;;5117808;27;20450;-76
2022/10/08 13:09:54;;;;;;;19.70;11.38;;;;;;;;;;5118217;27;20064;-76
2022/10/08 13:12:21;;;;;;;24.77;16.48;;;;;;;;;;5117468;28;20052;-74
2022/10/08 13:14:57;;;;;;;22.55;14.02;;;;;;;;;;5117421;28;20051;-76
2022/10/08 13:17:30;;;;;;;158.43;79.50;;;;;;;;;;5119219;28;20039;-77
2022/10/08 13:20:05;;;;;;;99.18;80.93;;;;;;;;;;5116883;28;20051;-75
2022/10/08 13:22:33;;;;;;;67.75;54.47;;;;;;;;;;5117142;28;20048;-76
2022/10/08 13:25:00;;;;;;;33.67;24.50;;;;;;;;;;5117287;28;20043;-75
2022/10/08 13:27:27;;;;;;;21.83;13.95;;;;;;;;;;5117347;28;20051;-75
2022/10/08 13:29:55;;;;;;;17.80;11.52;;;;;;;;;;5117321;28;20044;-76
2022/10/08 13:32:24;;;;;;;17.80;9.40;;;;;;;;;;5117015;28;20047;-76
2022/10/08 13:34:54;;;;;;;16.75;9.02;;;;;;;;;;5116484;28;20100;-75
2022/10/08 13:37:26;;;;;;;17.90;10.10;;;;;;;;;;5116874;28;20431;-76
2022/10/08 13:39:54;;;;;;;15.90;9.50;;;;;;;;;;5116856;28;20411;-76
2022/10/08 13:42:23;;;;;;;17.75;10.65;;;;;;;;;;5116701;28;20408;-75
2022/10/08 13:44:51;;;;;;;16.25;9.80;;;;;;;;;;5116792;28;20081;-76
2022/10/08 13:47:19;;;;;;;16.20;9.75;;;;;;;;;;5116869;28;20488;-76
2022/10/08 13:49:46;;;;;;;14.95;9.98;;;;;;;;;;5116180;28;20047;-76
2022/10/08 13:52:15;;;;;;;16.40;9.70;;;;;;;;;;5116598;28;20477;-76
2022/10/08 13:54:43;;;;;;;18.63;9.55;;;;;;;;;;5116664;27;20039;-76
2022/10/08 13:57:10;;;;;;;17.52;9.10;;;;;;;;;;5116662;28;20100;-76
2022/10/08 13:59:37;;;;;;;16.52;10.57;;;;;;;;;;5116531;28;20503;-76
2022/10/08 14:02:05;;;;;;;29.17;17.20;;;;;;;;;;5116453;28;20370;-76
2022/10/08 14:04:32;;;;;;;23.67;14.10;;;;;;;;;;5115347;28;20044;-76
2022/10/08 14:07:00;;;;;;;17.50;11.05;;;;;;;;;;5116430;28;20050;-76
2022/10/08 14:09:30;;;;;;;18.40;11.43;;;;;;;;;;5116238;28;20052;-76
2022/10/08 14:12:00;;;;;;;18.33;10.50;;;;;;;;;;5116778;28;20507;-75
2022/10/08 14:14:27;;;;;;;20.05;13.13;;;;;;;;;;5116437;28;20064;-75
2022/10/08 14:16:54;;;;;;;19.80;13.00;;;;;;;;;;5115754;28;20412;-76
2022/10/08 14:19:22;;;;;;;23.95;13.88;;;;;;;;;;5116173;28;20048;-75
2022/10/08 14:21:50;;;;;;;25.67;14.52;;;;;;;;;;5115957;28;20051;-74
2022/10/08 14:24:17;;;;;;;27.88;17.15;;;;;;;;;;5116000;28;20056;-76
2022/10/08 14:26:45;;;;;;;17.50;10.80;;;;;;;;;;5115971;28;20431;-76
2022/10/08 14:29:12;;;;;;;24.20;11.23;;;;;;;;;;5115995;28;20040;-76
2022/10/08 14:31:39;;;;;;;21.20;12.52;;;;;;;;;;5115661;28;20051;-76
2022/10/08 14:34:07;;;;;;;19.75;11.95;;;;;;;;;;5116038;28;20051;-74